Weather at Long Island Mac Arthur Airport

Public forecast

Using degrees Fahrenheit for public forecast. Weather courtesy of forecast.io.

Current aviation weather report (METAR) for Long Island Mac Arthur Airport

2023/03/26 02:56 (retrieved 6 minutes ago)

KISP 260256Z 02003KT 1/4SM R06/3000V3500FT BR VV002 07/07 A2972 RMK AO2 SFC VIS 3/4 SLP065 T00720072 56008

Closest aviation forecast (TAF) to Long Island Mac Arthur Airport

Forecast is more than 6 hours old.

Closest forecast is Westover Metropolitan Airport / Westover Air Reserve Base, 87.7 nm (162.5 km) NNE.

2023/03/25 19:46 Ammendment (retrieved 7 hours ago)

TAF AMD KCEF 251935Z 2519/2623 11008KT 3200 -RA BR BKN006 OVC015 620154 520054 QNH2987INS TEMPO 2519/2522 11010G16KT 4800 -RA BR SCT006 OVC015 BECMG 2521/2522 10009KT 2400 -RA BR OVC006 520054 QNH2978INS BECMG 2601/2602 10007KT 1600 BR VCSH OVC005 520054 QNH2967INS BECMG 2605/2606 VRB05KT 0800 FG VCSH OVC003 WS020/26035KT QNH2966INS BECMG 2609/2610 25009KT 9999 NSW SCT025 520054 QNH2970INS BECMG 2613/2614 27012G20KT 9999 BKN035 620352 520054 QNH2978INS TEMPO 2614/2616 28015G26KT 530005 BECMG 2617/2618 28012G20KT 9999 FEW035 520054 QNH2982INS TEMPO 2618/2621 28020G30KT 530005 BECMG 2620/2621 30010G18KT 9999 SKC 520054 QNH2985INS TX10/2617Z TN03/2519Z LAST NO AMDS AFT 2521 NEXT 2617